createdAt,value
2023-02-16T01:08:04.660Z,100.00
2023-02-16T01:11:05.925Z,100.00
2023-02-16T01:13:43.251Z,100.00
2023-02-16T01:16:22.550Z,100.00
2023-02-16T01:18:54.209Z,100.00
2023-02-16T01:21:23.606Z,100.00
2023-02-16T01:23:54.329Z,100.00
2023-02-16T01:26:23.919Z,100.00
2023-02-16T01:28:53.405Z,100.00
2023-02-16T01:31:24.184Z,100.00
2023-02-16T01:33:53.678Z,100.00
2023-02-16T01:36:29.585Z,100.00
2023-02-16T01:39:01.009Z,100.00
2023-02-16T01:41:54.439Z,100.00
2023-02-16T01:44:26.901Z,100.00
2023-02-16T01:47:05.227Z,100.00
2023-02-16T01:49:34.708Z,100.00
2023-02-16T01:52:13.675Z,100.00
2023-02-16T01:54:52.178Z,100.00
2023-02-16T01:57:36.258Z,100.00
2023-02-16T02:00:25.357Z,100.00
2023-02-16T02:03:20.436Z,100.00
2023-02-16T02:05:50.574Z,100.00
2023-02-16T02:08:31.586Z,100.00
2023-02-16T02:11:13.156Z,100.00
2023-02-16T02:13:53.284Z,100.00
2023-02-16T02:16:27.455Z,100.00
2023-02-16T02:18:58.938Z,100.00
2023-02-16T02:22:17.718Z,100.00
2023-02-16T02:25:44.987Z,100.00
2023-02-16T02:28:25.082Z,100.00
2023-02-16T02:31:09.261Z,100.00
2023-02-16T02:33:55.334Z,100.00
2023-02-16T02:36:36.595Z,100.00
2023-02-16T02:39:24.654Z,100.00
2023-02-16T02:42:05.105Z,100.00
2023-02-16T02:44:50.302Z,100.00
2023-02-16T02:47:19.954Z,100.00
2023-02-16T02:49:54.647Z,100.00
2023-02-16T02:52:24.616Z,100.00
2023-02-16T02:55:11.965Z,100.00
2023-02-16T02:58:04.199Z,100.00
2023-02-16T03:00:43.943Z,100.00
2023-02-16T03:03:21.637Z,100.00
2023-02-16T03:05:58.978Z,100.00
2023-02-16T03:08:33.042Z,100.00
2023-02-16T03:11:26.749Z,100.00
2023-02-16T03:14:00.481Z,100.00
2023-02-16T03:16:39.435Z,100.00
2023-02-16T03:19:30.924Z,100.00
2023-02-16T03:22:19.703Z,100.00
2023-02-16T03:25:07.016Z,100.00
2023-02-16T03:27:59.294Z,100.00
2023-02-16T03:30:30.686Z,100.00
2023-02-16T03:33:01.690Z,100.00
2023-02-16T03:35:31.266Z,100.00
2023-02-16T03:38:00.990Z,100.00
2023-02-16T03:40:34.885Z,100.00
2023-02-16T03:43:07.962Z,100.00
2023-02-16T03:45:44.494Z,100.00
2023-02-16T03:48:15.265Z,100.00
2023-02-16T03:50:44.862Z,100.00
2023-02-16T03:53:14.279Z,100.00
2023-02-16T03:55:47.764Z,100.00
2023-02-16T03:58:22.930Z,100.00
2023-02-16T04:00:53.739Z,100.00
2023-02-16T04:03:24.489Z,100.00
2023-02-16T04:05:53.935Z,100.00
2023-02-16T04:08:23.785Z,100.00
2023-02-16T04:10:54.206Z,100.00
2023-02-16T04:13:22.727Z,100.00
2023-02-16T04:15:52.344Z,100.00
2023-02-16T04:18:21.715Z,100.00
2023-02-16T04:20:53.963Z,100.00
2023-02-16T04:23:23.321Z,100.00
2023-02-16T04:25:52.980Z,100.00
2023-02-16T04:28:22.379Z,100.00
2023-02-16T04:30:52.410Z,100.00
2023-02-16T04:33:21.887Z,100.00
2023-02-16T04:35:52.901Z,100.00
2023-02-16T04:38:22.448Z,100.00
2023-02-16T04:40:51.993Z,100.00
2023-02-16T04:43:21.532Z,100.00
2023-02-16T04:45:51.200Z,100.00
2023-02-16T04:48:20.805Z,100.00
2023-02-16T04:50:51.875Z,100.00
2023-02-16T04:53:21.529Z,100.00
2023-02-16T04:55:51.367Z,100.00
2023-02-16T04:58:20.874Z,100.00
2023-02-16T05:00:50.458Z,100.00
2023-02-16T05:03:20.000Z,100.00
2023-02-16T05:05:50.279Z,100.00
2023-02-16T05:08:21.062Z,100.00
2023-02-16T05:11:10.812Z,100.00
2023-02-16T05:13:57.988Z,100.00
2023-02-16T05:16:27.690Z,100.00
2023-02-16T05:18:58.776Z,100.00
2023-02-16T05:21:35.254Z,100.00
2023-02-16T05:24:10.288Z,100.00
2023-02-16T05:26:40.935Z,100.00
2023-02-16T05:29:10.480Z,100.00
2023-02-16T05:31:40.010Z,100.00
2023-02-16T05:34:09.612Z,100.00
2023-02-16T05:36:39.099Z,100.00
2023-02-16T05:39:09.904Z,100.00
2023-02-16T05:41:39.388Z,100.00
2023-02-16T05:44:09.903Z,100.00
2023-02-16T05:46:41.930Z,100.00
2023-02-16T05:49:12.054Z,100.00
2023-02-16T05:51:42.160Z,100.00
2023-02-16T05:54:17.336Z,100.00
2023-02-16T05:56:48.712Z,100.00
2023-02-16T05:59:19.011Z,100.00
2023-02-16T06:01:51.855Z,100.00
2023-02-16T06:04:22.694Z,100.00
2023-02-16T06:06:52.110Z,100.00
2023-02-16T06:09:22.870Z,100.00
2023-02-16T06:11:52.348Z,100.00
2023-02-16T06:14:23.088Z,100.00
2023-02-16T06:16:52.731Z,100.00
2023-02-16T06:19:22.226Z,100.00
2023-02-16T06:21:51.652Z,100.00
2023-02-16T06:24:22.425Z,100.00
2023-02-16T06:26:51.808Z,100.00
2023-02-16T06:29:21.201Z,100.00
2023-02-16T06:31:50.778Z,100.00
2023-02-16T06:34:20.501Z,100.00
2023-02-16T06:36:49.930Z,100.00
2023-02-16T06:39:19.704Z,100.00
2023-02-16T06:41:50.487Z,100.00
2023-02-16T06:44:20.212Z,100.00
2023-02-16T06:46:49.999Z,100.00
2023-02-16T06:49:22.137Z,100.00
2023-02-16T06:51:51.895Z,100.00
2023-02-16T06:54:21.760Z,100.00
2023-02-16T06:56:52.624Z,100.00
2023-02-16T06:59:22.003Z,100.00
2023-02-16T07:01:51.497Z,100.00
2023-02-16T07:04:20.942Z,100.00
2023-02-16T07:06:50.493Z,100.00
2023-02-16T07:09:19.984Z,100.00
2023-02-16T07:11:50.032Z,100.00
2023-02-16T07:14:20.947Z,100.00
2023-02-16T07:16:50.332Z,100.00
2023-02-16T07:19:20.046Z,100.00
2023-02-16T07:21:49.404Z,100.00
2023-02-16T07:24:19.092Z,100.00
2023-02-16T07:26:49.118Z,100.00
2023-02-16T07:29:20.086Z,100.00
2023-02-16T07:31:50.775Z,100.00
2023-02-16T07:34:21.759Z,100.00
2023-02-16T07:36:51.577Z,100.00
2023-02-16T07:39:21.132Z,100.00
2023-02-16T07:41:50.543Z,100.00
2023-02-16T07:44:22.646Z,100.00
2023-02-16T07:46:52.055Z,100.00
2023-02-16T07:49:21.650Z,100.00
2023-02-16T07:51:51.160Z,100.00
2023-02-16T07:54:20.614Z,100.00
2023-02-16T07:56:50.046Z,100.00
2023-02-16T07:59:20.836Z,100.00
2023-02-16T08:01:50.603Z,100.00
2023-02-16T08:04:20.151Z,100.00
2023-02-16T08:06:50.810Z,100.00
2023-02-16T08:09:20.840Z,100.00
2023-02-16T08:11:50.289Z,100.00
2023-02-16T08:14:21.060Z,100.00
2023-02-16T08:16:53.603Z,100.00
2023-02-16T08:19:24.273Z,100.00
2023-02-16T08:21:54.483Z,100.00
2023-02-16T08:24:25.002Z,100.00
2023-02-16T08:26:55.686Z,100.00
2023-02-16T08:29:26.912Z,100.00
2023-02-16T08:31:56.744Z,100.00
2023-02-16T08:34:27.314Z,100.00
2023-02-16T08:36:58.673Z,100.00
2023-02-16T08:39:31.932Z,100.00
2023-02-16T08:42:02.627Z,100.00
2023-02-16T08:44:33.521Z,100.00
2023-02-16T08:47:03.742Z,100.00
2023-02-16T08:49:33.599Z,100.00
2023-02-16T08:52:04.184Z,100.00
2023-02-16T08:54:33.649Z,100.00
2023-02-16T08:57:03.984Z,100.00
2023-02-16T08:59:35.027Z,100.00
2023-02-16T09:02:05.355Z,100.00
2023-02-16T09:04:36.755Z,100.00
2023-02-16T09:07:07.363Z,100.00
2023-02-16T09:09:36.844Z,100.00
2023-02-16T09:12:07.203Z,100.00
2023-02-16T09:14:38.263Z,100.00
2023-02-16T09:17:07.864Z,100.00
2023-02-16T09:19:37.473Z,100.00
2023-02-16T09:22:07.113Z,100.00
2023-02-16T09:24:36.689Z,100.00
2023-02-16T09:27:06.957Z,100.00
2023-02-16T09:29:38.642Z,100.00
2023-02-16T09:32:09.828Z,100.00
2023-02-16T09:34:39.373Z,100.00
2023-02-16T09:37:08.857Z,100.00
2023-02-16T09:39:38.321Z,100.00
2023-02-16T09:42:28.332Z,100.00
2023-02-16T09:45:09.712Z,100.00
2023-02-16T09:47:45.017Z,100.00
2023-02-16T09:50:27.795Z,100.00
2023-02-16T09:53:20.129Z,100.00
2023-02-16T09:56:03.521Z,100.00
2023-02-16T09:58:41.649Z,100.00
2023-02-16T10:01:28.969Z,100.00
2023-02-16T10:04:23.686Z,100.00
2023-02-16T10:07:10.821Z,100.00
2023-02-16T10:09:42.381Z,100.00
2023-02-16T10:12:19.344Z,100.00
2023-02-16T10:14:52.934Z,100.00
2023-02-16T10:17:43.172Z,100.00
2023-02-16T10:20:16.671Z,100.00
2023-02-16T10:22:54.043Z,100.00
2023-02-16T10:25:31.620Z,100.00
2023-02-16T10:28:17.473Z,100.00
2023-02-16T10:30:54.949Z,100.00
2023-02-16T10:33:41.019Z,100.00
2023-02-16T10:36:25.812Z,100.00
2023-02-16T10:39:04.558Z,100.00
2023-02-16T10:41:42.053Z,100.00
2023-02-16T10:44:21.344Z,100.00
2023-02-16T10:47:01.849Z,97.66
2023-02-16T10:49:34.029Z,96.22
2023-02-16T10:52:04.953Z,100.00
2023-02-16T10:54:35.115Z,100.00
2023-02-16T10:57:07.465Z,87.00
2023-02-16T10:59:42.533Z,87.98
2023-02-16T11:02:22.079Z,82.67
2023-02-16T11:04:54.865Z,83.08
2023-02-16T11:07:27.830Z,79.97
2023-02-16T11:10:01.342Z,78.53
2023-02-16T11:12:34.926Z,73.72
2023-02-16T11:15:22.887Z,77.81
2023-02-16T11:17:56.574Z,78.22
2023-02-16T11:20:32.614Z,73.82
2023-02-16T11:23:23.577Z,74.67
2023-02-16T11:26:01.090Z,71.75
2023-02-16T11:28:36.954Z,70.03
2023-02-16T11:31:19.723Z,71.36
2023-02-16T11:34:03.813Z,68.65
2023-02-16T11:36:41.687Z,69.54
2023-02-16T11:39:22.400Z,67.43
2023-02-16T11:41:55.610Z,68.96
2023-02-16T11:44:30.905Z,67.70
2023-02-16T11:47:03.849Z,65.06
2023-02-16T11:49:37.092Z,66.39
2023-02-16T11:52:29.249Z,63.17
2023-02-16T11:55:03.043Z,64.47
2023-02-16T11:57:36.730Z,65.28
2023-02-16T12:00:19.274Z,62.62
2023-02-16T12:03:17.982Z,61.93
2023-02-16T12:06:09.906Z,61.12
2023-02-16T12:09:06.996Z,61.00
2023-02-16T12:11:52.651Z,60.58
2023-02-16T12:14:38.299Z,59.25
2023-02-16T12:17:27.772Z,58.02
2023-02-16T12:20:16.157Z,58.39
2023-02-16T12:22:49.947Z,59.08
2023-02-16T12:25:33.335Z,56.92
2023-02-16T12:28:13.630Z,56.76
2023-02-16T12:31:02.250Z,55.88
2023-02-16T12:33:47.984Z,56.81
2023-02-16T12:36:57.225Z,55.72
2023-02-16T12:39:39.348Z,55.65
2023-02-16T12:42:51.113Z,57.27
2023-02-16T12:45:24.993Z,56.16
2023-02-16T12:48:01.200Z,54.53
2023-02-16T12:50:33.676Z,54.67
2023-02-16T12:53:10.499Z,54.08
2023-02-16T12:55:48.908Z,54.89
2023-02-16T12:58:25.033Z,54.50
2023-02-16T13:01:01.058Z,53.44
2023-02-16T13:03:39.632Z,52.43
2023-02-16T13:06:22.746Z,54.16
2023-02-16T13:09:05.137Z,53.34
2023-02-16T13:11:40.527Z,53.52
2023-02-16T13:14:28.906Z,53.56
2023-02-16T13:17:04.229Z,53.11
2023-02-16T13:19:33.877Z,54.13
2023-02-16T13:22:38.053Z,52.38
2023-02-16T13:25:53.385Z,50.62
2023-02-16T13:28:52.310Z,50.73
2023-02-16T13:31:45.108Z,51.11
2023-02-16T13:34:48.832Z,51.14
2023-02-16T13:37:39.261Z,51.10
2023-02-16T13:40:47.373Z,51.05
2023-02-16T13:43:33.795Z,49.73
2023-02-16T13:46:09.050Z,50.75
2023-02-16T13:48:48.776Z,50.46
2023-02-16T13:51:22.451Z,51.22
2023-02-16T13:53:57.670Z,49.06
2023-02-16T13:56:38.185Z,49.33
2023-02-16T14:00:05.525Z,48.67
2023-02-16T14:03:00.828Z,49.91
2023-02-16T14:05:39.465Z,48.67
2023-02-16T14:08:25.594Z,47.21
2023-02-16T14:11:10.669Z,47.38
2023-02-16T14:13:51.704Z,46.88
